Hysham, Montana
Current Conditions -  °F | °C
As of 10:53 AM on Saturday 22 Nov 2014 (Local Time) from KMLS Reporting Station
Light Rain Light Rain  
Wind Chill: 38°   Ceiling: 5000
Heat Index: 42°   Visibility: 10mi
Dew Point: 37°   Wind: 7mph
Humidity: 82%   Direction: 270°W
Pressure: 29.36"   Gusts: NA
Location:  46.29°N, 107.23°W
Report Text: KMLS 221753Z AUTO 27006KT 10SM -RA BKN050 OVC055 06/03 A2936 RMK AO2 SLP959 P0002 60002 T00560028 10056 21006 58003
Loading
Personal Weather Stations






























Interactive Weather Map New forecast layout! Learn more

10-Day Weather Forecast

Advertisements
Track Severe Weather on mobile